createdAt,value
2022-11-08T00:02:23.447Z,13.98
2022-11-08T00:04:50.171Z,13.94
2022-11-08T00:07:35.900Z,13.93
2022-11-08T00:10:21.183Z,13.91
2022-11-08T00:13:06.463Z,13.88
2022-11-08T00:15:38.582Z,13.85
2022-11-08T00:18:07.106Z,13.83
2022-11-08T00:20:34.074Z,13.83
2022-11-08T00:23:00.997Z,13.89
2022-11-08T00:25:27.654Z,13.90
2022-11-08T00:27:54.310Z,13.88
2022-11-08T00:30:20.959Z,13.86
2022-11-08T00:32:47.634Z,13.84
2022-11-08T00:35:14.457Z,13.80
2022-11-08T00:37:41.268Z,13.81
2022-11-08T00:40:08.398Z,13.76
2022-11-08T00:42:35.138Z,13.67
2022-11-08T00:45:02.160Z,13.66
2022-11-08T00:47:28.829Z,13.66
2022-11-08T00:49:55.497Z,13.62
2022-11-08T00:52:22.188Z,13.64
2022-11-08T00:54:48.824Z,13.63
2022-11-08T00:57:15.468Z,13.71
2022-11-08T00:59:42.092Z,13.73
2022-11-08T01:02:08.922Z,13.59
2022-11-08T01:04:36.196Z,13.57
2022-11-08T01:07:02.985Z,13.63
2022-11-08T01:09:31.114Z,13.53
2022-11-08T01:11:57.980Z,13.64
2022-11-08T01:14:24.691Z,13.63
2022-11-08T01:16:52.257Z,13.66
2022-11-08T01:19:18.980Z,13.62
2022-11-08T01:21:45.703Z,13.63
2022-11-08T01:24:12.376Z,13.61
2022-11-08T01:26:39.110Z,13.60
2022-11-08T01:29:05.771Z,13.61
2022-11-08T01:31:32.676Z,13.60
2022-11-08T01:33:59.977Z,13.58
2022-11-08T01:36:28.095Z,13.55
2022-11-08T01:38:56.156Z,13.52
2022-11-08T01:41:25.005Z,13.54
2022-11-08T01:43:52.763Z,13.53
2022-11-08T01:46:19.399Z,13.51
2022-11-08T01:48:52.374Z,13.49
2022-11-08T01:51:23.180Z,13.47
2022-11-08T01:53:50.933Z,13.53
2022-11-08T01:56:18.989Z,13.47
2022-11-08T01:58:48.121Z,13.45
2022-11-08T02:01:14.787Z,13.40
2022-11-08T02:03:41.730Z,13.39
2022-11-08T02:06:09.638Z,13.37
2022-11-08T02:08:41.525Z,13.33
2022-11-08T02:11:11.245Z,13.31
2022-11-08T02:13:38.974Z,13.29
2022-11-08T02:16:14.579Z,13.28
2022-11-08T02:18:43.900Z,13.30
2022-11-08T02:21:20.676Z,13.27
2022-11-08T02:23:52.213Z,13.25
2022-11-08T02:26:24.390Z,13.20
2022-11-08T02:28:51.452Z,13.22
2022-11-08T02:31:20.026Z,13.19
2022-11-08T02:33:48.179Z,13.18
2022-11-08T02:36:20.110Z,13.14
2022-11-08T02:38:50.307Z,13.14
2022-11-08T02:41:16.975Z,13.12
2022-11-08T02:43:43.613Z,13.11
2022-11-08T02:46:10.279Z,13.07
2022-11-08T02:48:36.956Z,13.08
2022-11-08T02:51:03.703Z,13.10
2022-11-08T02:53:30.400Z,13.10
2022-11-08T02:55:57.091Z,13.07
2022-11-08T02:58:23.801Z,13.06
2022-11-08T03:00:50.458Z,13.07
2022-11-08T03:03:17.036Z,13.11
2022-11-08T03:05:43.759Z,13.09
2022-11-08T03:08:10.491Z,13.09
2022-11-08T03:10:37.100Z,13.10
2022-11-08T03:13:05.408Z,13.08
2022-11-08T03:15:33.343Z,13.07
2022-11-08T03:18:00.187Z,13.08
2022-11-08T03:20:32.129Z,13.09
2022-11-08T03:23:01.259Z,13.06
2022-11-08T03:25:28.259Z,13.02
2022-11-08T03:27:55.239Z,12.99
2022-11-08T03:30:22.313Z,12.93
2022-11-08T03:32:49.936Z,12.92
2022-11-08T03:35:17.137Z,12.83
2022-11-08T03:37:54.431Z,12.79
2022-11-08T03:40:21.930Z,12.82
2022-11-08T03:42:49.004Z,12.72
2022-11-08T03:45:16.324Z,12.77
2022-11-08T03:47:44.835Z,12.72
2022-11-08T03:50:12.630Z,12.72
2022-11-08T03:52:48.381Z,12.75
2022-11-08T03:55:16.324Z,12.71
2022-11-08T03:57:44.826Z,12.76
2022-11-08T04:00:13.233Z,12.72
2022-11-08T04:02:40.568Z,12.70
2022-11-08T04:05:09.709Z,12.70
2022-11-08T04:07:36.791Z,12.66
2022-11-08T04:10:08.204Z,12.65
2022-11-08T04:12:57.202Z,12.67
2022-11-08T04:15:24.753Z,12.71
2022-11-08T04:18:11.335Z,12.69
2022-11-08T04:21:01.382Z,12.69
2022-11-08T04:23:28.653Z,12.71
2022-11-08T04:26:01.226Z,12.66
2022-11-08T04:28:30.558Z,12.66
2022-11-08T04:30:59.247Z,12.62
2022-11-08T04:33:26.622Z,12.63
2022-11-08T04:35:53.902Z,12.59
2022-11-08T04:38:21.804Z,12.51
2022-11-08T04:40:48.681Z,12.51
2022-11-08T04:43:15.335Z,12.47
2022-11-08T04:45:41.976Z,12.41
2022-11-08T04:48:08.729Z,12.41
2022-11-08T04:50:36.411Z,12.34
2022-11-08T04:53:03.231Z,12.35
2022-11-08T04:55:29.892Z,12.38
2022-11-08T04:57:59.855Z,12.39
2022-11-08T05:00:26.978Z,12.47
2022-11-08T05:02:54.181Z,12.49
2022-11-08T05:05:21.991Z,12.56
2022-11-08T05:07:48.829Z,12.63
2022-11-08T05:10:15.658Z,12.67
2022-11-08T05:12:42.452Z,12.70
2022-11-08T05:15:09.804Z,12.66
2022-11-08T05:17:36.538Z,12.65
2022-11-08T05:20:23.482Z,12.62
2022-11-08T05:23:08.772Z,12.58
2022-11-08T05:25:39.119Z,12.55
2022-11-08T05:28:05.794Z,12.55
2022-11-08T05:30:32.704Z,12.46
2022-11-08T05:32:59.377Z,12.51
2022-11-08T05:35:26.037Z,12.56
2022-11-08T05:37:52.658Z,12.55
2022-11-08T05:40:19.310Z,12.59
2022-11-08T05:42:45.975Z,12.60
2022-11-08T05:45:12.574Z,12.58
2022-11-08T05:47:39.247Z,12.64
2022-11-08T05:50:06.371Z,12.65
2022-11-08T05:52:33.245Z,12.74
2022-11-08T05:55:00.165Z,12.82
2022-11-08T05:57:26.836Z,12.84
2022-11-08T05:59:53.504Z,12.87
2022-11-08T06:02:20.310Z,12.90
2022-11-08T06:04:47.111Z,12.82
2022-11-08T06:07:13.733Z,12.86
2022-11-08T06:09:40.475Z,12.87
2022-11-08T06:12:07.937Z,12.88
2022-11-08T06:14:34.864Z,12.92
2022-11-08T06:17:01.628Z,12.97
2022-11-08T06:19:28.296Z,13.03
2022-11-08T06:21:55.062Z,13.00
2022-11-08T06:24:21.726Z,12.99
2022-11-08T06:26:48.498Z,12.99
2022-11-08T06:29:15.145Z,12.99
2022-11-08T06:31:43.214Z,13.01
2022-11-08T06:34:10.765Z,13.05
2022-11-08T06:36:37.550Z,13.07
2022-11-08T06:39:04.477Z,13.04
2022-11-08T06:41:32.200Z,13.04
2022-11-08T06:43:59.471Z,13.04
2022-11-08T06:46:26.349Z,13.04
2022-11-08T06:48:53.027Z,13.01
2022-11-08T06:51:19.910Z,13.06
2022-11-08T06:53:46.629Z,13.11
2022-11-08T06:56:13.403Z,13.10
2022-11-08T06:58:40.105Z,13.18
2022-11-08T07:01:08.697Z,13.24
2022-11-08T07:03:35.499Z,13.27
2022-11-08T07:06:06.853Z,13.29
2022-11-08T07:08:34.970Z,13.39
2022-11-08T07:11:02.427Z,13.41
2022-11-08T07:13:29.284Z,13.48
2022-11-08T07:16:00.151Z,13.48
2022-11-08T07:18:28.221Z,13.58
2022-11-08T07:21:00.093Z,13.71
2022-11-08T07:23:27.853Z,13.87
2022-11-08T07:25:54.970Z,13.89
2022-11-08T07:28:21.768Z,13.85
2022-11-08T07:30:49.002Z,14.04
2022-11-08T07:33:17.489Z,14.07
2022-11-08T07:35:47.133Z,14.22
2022-11-08T07:38:14.080Z,14.35
2022-11-08T07:40:41.086Z,14.48
2022-11-08T07:43:12.732Z,14.77
2022-11-08T07:45:41.512Z,14.97
2022-11-08T07:48:12.442Z,15.02
2022-11-08T07:50:41.401Z,15.04
2022-11-08T07:53:08.944Z,15.00
2022-11-08T07:55:37.483Z,15.10
2022-11-08T07:58:04.984Z,15.20
2022-11-08T08:00:33.362Z,15.27
2022-11-08T08:03:01.334Z,15.30
2022-11-08T08:05:30.824Z,15.42
2022-11-08T08:07:58.711Z,15.46
2022-11-08T08:10:26.515Z,15.52
2022-11-08T08:12:53.674Z,15.62
2022-11-08T08:15:20.491Z,15.99
2022-11-08T08:17:47.272Z,16.50
2022-11-08T08:20:14.205Z,17.08
2022-11-08T08:22:45.532Z,17.73
2022-11-08T08:25:13.214Z,17.94
2022-11-08T08:27:40.402Z,18.25
2022-11-08T08:30:07.645Z,18.20
2022-11-08T08:32:34.531Z,17.77
2022-11-08T08:35:01.208Z,17.58
2022-11-08T08:37:28.357Z,17.23
2022-11-08T08:39:54.985Z,17.06
2022-11-08T08:42:21.673Z,17.05
2022-11-08T08:44:48.400Z,16.98
2022-11-08T08:47:15.007Z,16.92
2022-11-08T08:49:41.731Z,16.92
2022-11-08T08:52:08.452Z,16.86
2022-11-08T08:54:35.201Z,17.05
2022-11-08T08:57:01.967Z,17.18
2022-11-08T09:02:17.257Z,17.89
2022-11-08T09:04:44.094Z,18.23
2022-11-08T09:07:10.907Z,18.52
2022-11-08T09:09:37.723Z,18.90
2022-11-08T09:12:06.317Z,19.57
2022-11-08T09:14:34.728Z,20.56
2022-11-08T09:17:01.536Z,21.47
2022-11-08T09:19:28.204Z,22.91
2022-11-08T09:21:54.928Z,24.07
2022-11-08T09:24:21.749Z,25.57
2022-11-08T09:26:55.138Z,26.99
2022-11-08T09:29:21.845Z,27.58
2022-11-08T09:31:49.762Z,27.81
2022-11-08T09:34:19.219Z,28.13
2022-11-08T09:36:48.795Z,29.09
2022-11-08T09:39:16.436Z,29.95
2022-11-08T09:41:59.794Z,30.76
2022-11-08T09:45:00.557Z,30.59
2022-11-08T09:47:34.698Z,31.49
2022-11-08T09:50:15.935Z,31.36
2022-11-08T09:52:46.001Z,31.54
2022-11-08T09:55:26.540Z,30.81
2022-11-08T09:58:11.892Z,30.16
2022-11-08T10:00:40.379Z,29.36
2022-11-08T10:03:13.246Z,28.25
2022-11-08T10:05:43.716Z,27.79
2022-11-08T10:08:28.575Z,27.28
2022-11-08T10:11:13.370Z,27.73
2022-11-08T10:13:45.877Z,27.92
2022-11-08T10:16:29.247Z,28.45
2022-11-08T10:19:00.252Z,29.55
2022-11-08T10:21:52.009Z,30.35
2022-11-08T10:24:33.669Z,29.89
2022-11-08T10:27:00.367Z,28.66
2022-11-08T10:29:43.685Z,27.47
2022-11-08T10:32:24.833Z,26.50
2022-11-08T10:35:18.674Z,25.91
2022-11-08T10:37:49.210Z,25.78
2022-11-08T10:40:22.385Z,26.36
2022-11-08T10:42:59.289Z,27.83
2022-11-08T10:45:25.959Z,29.84
2022-11-08T10:47:53.797Z,31.14
2022-11-08T10:50:32.062Z,31.74
2022-11-08T10:53:02.284Z,32.01
2022-11-08T10:55:38.360Z,32.18
2022-11-08T10:58:27.862Z,32.84
2022-11-08T11:01:22.697Z,32.73
2022-11-08T11:03:52.455Z,33.14
2022-11-08T11:06:22.127Z,33.15
2022-11-08T11:09:00.576Z,32.70
2022-11-08T11:11:38.046Z,31.75
2022-11-08T11:14:09.993Z,31.68
2022-11-08T11:16:56.188Z,31.39
2022-11-08T11:19:24.955Z,31.22
2022-11-08T11:21:58.115Z,31.72
2022-11-08T11:24:25.438Z,32.03
2022-11-08T11:27:00.654Z,32.35
2022-11-08T11:29:30.276Z,32.67
2022-11-08T11:31:58.612Z,32.56
2022-11-08T11:34:35.527Z,33.20
2022-11-08T11:37:11.011Z,33.36
2022-11-08T11:39:49.512Z,33.43
2022-11-08T11:42:52.287Z,33.88
2022-11-08T11:45:24.408Z,33.87
2022-11-08T11:47:54.302Z,33.11
2022-11-08T11:50:34.646Z,33.25
2022-11-08T11:53:04.974Z,33.29
2022-11-08T11:55:43.035Z,33.02
2022-11-08T11:58:09.687Z,32.80
2022-11-08T12:00:42.764Z,32.71
2022-11-08T12:03:18.971Z,31.58
2022-11-08T12:05:48.801Z,31.00
2022-11-08T12:08:47.540Z,29.86
2022-11-08T12:11:23.382Z,29.49
2022-11-08T12:14:11.647Z,28.62
2022-11-08T12:16:44.082Z,27.69
2022-11-08T12:19:46.321Z,26.74
2022-11-08T12:22:37.586Z,26.10
2022-11-08T12:25:51.022Z,25.75
2022-11-08T12:28:50.832Z,25.47
2022-11-08T12:31:24.128Z,25.07
2022-11-08T12:34:35.429Z,24.73
2022-11-08T12:37:42.951Z,24.26
2022-11-08T12:40:28.974Z,24.18
2022-11-08T12:43:21.610Z,24.26
2022-11-08T12:45:57.354Z,24.01
2022-11-08T12:48:56.202Z,23.97
2022-11-08T12:51:44.471Z,23.63
2022-11-08T12:54:17.116Z,23.75
2022-11-08T12:56:48.190Z,23.56
2022-11-08T12:59:23.894Z,23.24
2022-11-08T13:01:52.486Z,23.33
2022-11-08T13:04:43.424Z,23.20
2022-11-08T13:07:51.901Z,23.13
2022-11-08T13:10:18.471Z,23.13
2022-11-08T13:12:48.194Z,23.10
2022-11-08T13:15:28.426Z,23.13
2022-11-08T13:18:07.432Z,23.14
2022-11-08T13:20:47.566Z,23.23
2022-11-08T13:23:31.455Z,23.15
2022-11-08T13:26:24.225Z,23.27
2022-11-08T13:28:52.566Z,23.33
2022-11-08T13:31:21.976Z,23.21
2022-11-08T13:34:07.277Z,23.36
2022-11-08T13:36:58.816Z,23.39
2022-11-08T13:40:00.664Z,23.55
2022-11-08T13:42:28.874Z,23.55
2022-11-08T13:44:55.508Z,23.08
2022-11-08T13:47:34.519Z,23.09
2022-11-08T13:50:29.069Z,22.99
2022-11-08T13:53:07.591Z,22.80
2022-11-08T13:55:44.557Z,22.39
2022-11-08T13:58:38.867Z,22.41
2022-11-08T14:01:07.984Z,22.28
2022-11-08T14:03:34.602Z,22.31
2022-11-08T14:06:13.553Z,22.34
2022-11-08T14:08:54.446Z,22.33
2022-11-08T14:11:43.148Z,22.32
2022-11-08T14:14:20.767Z,22.17
2022-11-08T14:16:58.815Z,22.27
2022-11-08T14:19:27.314Z,22.21
2022-11-08T14:21:58.173Z,22.19
2022-11-08T14:24:28.845Z,22.23
2022-11-08T14:26:55.765Z,22.15
2022-11-08T14:29:24.353Z,22.10
2022-11-08T14:32:09.237Z,21.94
2022-11-08T14:34:37.707Z,22.12
2022-11-08T14:37:11.168Z,22.15
2022-11-08T14:39:38.091Z,22.02
2022-11-08T14:42:18.727Z,21.90
2022-11-08T14:44:46.277Z,21.83
2022-11-08T14:47:28.656Z,21.80
2022-11-08T14:49:55.484Z,21.65
2022-11-08T14:52:29.259Z,21.55
2022-11-08T14:55:04.063Z,21.56
2022-11-08T14:57:36.855Z,21.57
2022-11-08T15:00:15.161Z,21.52
2022-11-08T15:02:44.914Z,21.54
2022-11-08T15:05:53.783Z,21.38
2022-11-08T15:08:25.981Z,21.34
2022-11-08T15:11:07.702Z,21.41
2022-11-08T15:13:45.786Z,21.33
2022-11-08T15:16:12.932Z,21.21
2022-11-08T15:18:43.803Z,21.07
2022-11-08T15:21:16.426Z,21.07
2022-11-08T15:23:45.808Z,21.02
2022-11-08T15:26:31.636Z,21.01
2022-11-08T15:29:02.274Z,20.85
2022-11-08T15:31:32.818Z,20.87
2022-11-08T15:33:59.696Z,20.75
2022-11-08T15:36:34.213Z,20.74
2022-11-08T15:39:02.270Z,20.68
2022-11-08T15:41:31.037Z,20.64
2022-11-08T15:44:20.793Z,20.63
2022-11-08T15:46:47.764Z,20.45
2022-11-08T15:49:16.254Z,20.42
2022-11-08T15:51:43.015Z,20.41
2022-11-08T15:54:09.753Z,20.37
2022-11-08T15:56:37.000Z,20.30
2022-11-08T15:59:04.495Z,20.18
2022-11-08T16:01:31.246Z,20.15
2022-11-08T16:03:57.905Z,20.06
2022-11-08T16:06:24.605Z,20.04
2022-11-08T16:08:51.243Z,20.03
2022-11-08T16:11:23.163Z,20.02
2022-11-08T16:13:51.290Z,19.98
2022-11-08T16:16:18.566Z,19.91
2022-11-08T16:18:45.452Z,19.83
2022-11-08T16:21:13.677Z,19.73
2022-11-08T16:23:41.391Z,19.66
2022-11-08T16:26:15.017Z,19.60
2022-11-08T16:28:41.816Z,19.55
2022-11-08T16:31:14.052Z,19.46
2022-11-08T16:33:42.388Z,19.42
2022-11-08T16:36:21.097Z,19.37
2022-11-08T16:38:58.930Z,19.30
2022-11-08T16:41:26.262Z,19.17
2022-11-08T16:43:53.297Z,19.17
2022-11-08T16:46:21.505Z,19.14
2022-11-08T16:48:53.144Z,19.02
2022-11-08T16:51:21.546Z,19.07
2022-11-08T16:53:49.122Z,19.07
2022-11-08T16:56:16.212Z,19.03
2022-11-08T16:58:43.140Z,19.04
2022-11-08T17:01:15.325Z,19.07
2022-11-08T17:03:42.754Z,19.01
2022-11-08T17:06:17.851Z,19.12
2022-11-08T17:08:45.777Z,19.19
2022-11-08T17:11:20.004Z,19.18
2022-11-08T17:13:47.619Z,19.20
2022-11-08T17:16:15.865Z,19.23
2022-11-08T17:18:42.833Z,19.26
2022-11-08T17:21:38.252Z,19.32
2022-11-08T17:23:59.365Z,19.31
2022-11-08T17:26:26.684Z,19.34
2022-11-08T17:28:56.484Z,19.32
2022-11-08T17:31:23.188Z,19.28
2022-11-08T17:33:49.996Z,19.28
2022-11-08T17:36:16.749Z,19.24
2022-11-08T17:38:43.577Z,19.15
2022-11-08T17:41:13.003Z,19.21
2022-11-08T17:43:40.571Z,19.18
2022-11-08T17:46:07.754Z,19.12
2022-11-08T17:48:35.015Z,19.10
2022-11-08T17:51:01.781Z,19.01
2022-11-08T17:53:28.892Z,19.00
2022-11-08T17:55:58.515Z,18.93
2022-11-08T17:58:25.969Z,18.98
2022-11-08T18:00:54.480Z,19.01
2022-11-08T18:03:21.839Z,18.95
2022-11-08T18:05:57.594Z,19.00
2022-11-08T18:08:27.176Z,19.04
2022-11-08T18:10:54.399Z,19.13
2022-11-08T18:13:22.363Z,19.09
2022-11-08T18:15:52.256Z,19.06
2022-11-08T18:18:19.277Z,18.98
2022-11-08T18:20:53.061Z,18.96
2022-11-08T18:23:20.070Z,19.00
2022-11-08T18:25:49.082Z,18.96
2022-11-08T18:28:16.761Z,18.98
2022-11-08T18:30:47.806Z,18.95
2022-11-08T18:33:19.335Z,19.01
2022-11-08T18:35:46.778Z,19.02
2022-11-08T18:38:13.892Z,18.97
2022-11-08T18:40:44.171Z,18.97
2022-11-08T18:43:10.840Z,18.99
2022-11-08T18:45:37.853Z,19.03
2022-11-08T18:48:04.682Z,19.00
2022-11-08T18:50:32.398Z,19.00
2022-11-08T18:53:03.349Z,18.99
2022-11-08T18:55:31.701Z,18.91
2022-11-08T18:58:00.732Z,18.93
2022-11-08T19:00:27.861Z,18.88
2022-11-08T19:02:54.927Z,18.85
2022-11-08T19:05:21.681Z,18.91
2022-11-08T19:07:48.401Z,18.94
2022-11-08T19:10:15.153Z,18.94
2022-11-08T19:12:42.013Z,18.87
2022-11-08T19:15:09.121Z,18.85
2022-11-08T19:17:36.359Z,18.95
2022-11-08T19:20:04.612Z,18.85
2022-11-08T19:22:31.283Z,18.90
2022-11-08T19:24:57.911Z,18.73
2022-11-08T19:27:24.577Z,18.88
2022-11-08T19:29:51.385Z,18.94
2022-11-08T19:32:18.085Z,18.94
2022-11-08T19:34:48.173Z,18.81
2022-11-08T19:37:14.898Z,18.88
2022-11-08T19:39:41.730Z,18.84
2022-11-08T19:42:08.312Z,18.89
2022-11-08T19:44:34.966Z,18.69
2022-11-08T19:47:01.890Z,18.80
2022-11-08T19:49:28.757Z,18.74
2022-11-08T19:51:55.447Z,18.68
2022-11-08T19:54:22.166Z,18.56
2022-11-08T19:57:05.721Z,18.36
2022-11-08T19:59:33.267Z,18.70
2022-11-08T20:02:00.320Z,18.49
2022-11-08T20:04:28.079Z,18.40
2022-11-08T20:06:55.065Z,18.63
2022-11-08T20:09:25.964Z,18.55
2022-11-08T20:11:55.757Z,18.40
2022-11-08T20:14:22.419Z,18.55
2022-11-08T20:16:53.243Z,18.37
2022-11-08T20:19:20.593Z,18.24
2022-11-08T20:21:47.423Z,18.25
2022-11-08T20:24:15.224Z,18.23
2022-11-08T20:26:42.496Z,18.31
2022-11-08T20:29:09.650Z,18.37
2022-11-08T20:31:37.313Z,18.38
2022-11-08T20:34:07.250Z,18.41
2022-11-08T20:36:37.330Z,18.37
2022-11-08T20:39:07.790Z,18.38
2022-11-08T20:41:37.129Z,18.29
2022-11-08T20:44:05.229Z,18.26
2022-11-08T20:46:33.006Z,18.26
2022-11-08T20:49:01.023Z,18.26
2022-11-08T20:51:30.532Z,18.21
2022-11-08T20:53:58.877Z,18.06
2022-11-08T20:56:26.209Z,18.16
2022-11-08T20:58:53.673Z,18.10
2022-11-08T21:01:22.884Z,18.15
2022-11-08T21:03:51.062Z,18.13
2022-11-08T21:06:20.199Z,18.01
2022-11-08T21:09:12.130Z,18.06
2022-11-08T21:11:35.342Z,17.99
2022-11-08T21:14:03.056Z,18.15
2022-11-08T21:16:34.994Z,18.18
2022-11-08T21:19:05.686Z,18.19
2022-11-08T21:21:33.004Z,18.20
2022-11-08T21:23:59.742Z,18.20
2022-11-08T21:26:26.564Z,18.26
2022-11-08T21:28:53.771Z,18.23
2022-11-08T21:31:20.469Z,18.24
2022-11-08T21:33:47.473Z,18.18
2022-11-08T21:36:14.216Z,18.16
2022-11-08T21:38:40.892Z,18.19
2022-11-08T21:41:09.958Z,18.16
2022-11-08T21:43:44.714Z,18.24
2022-11-08T21:46:20.849Z,18.30
2022-11-08T21:48:52.515Z,18.31
2022-11-08T21:51:19.227Z,18.28
2022-11-08T21:53:54.039Z,18.31
2022-11-08T21:56:23.145Z,18.34
2022-11-08T21:58:50.273Z,18.36
2022-11-08T22:01:17.732Z,18.33
2022-11-08T22:03:44.602Z,18.35
2022-11-08T22:06:11.511Z,18.42
2022-11-08T22:08:38.271Z,18.35
2022-11-08T22:11:05.297Z,18.34
2022-11-08T22:13:32.528Z,18.33
2022-11-08T22:15:59.132Z,18.34
2022-11-08T22:18:50.263Z,18.15
2022-11-08T22:21:30.951Z,18.21
2022-11-08T22:23:57.601Z,18.25
2022-11-08T22:26:24.254Z,18.21
2022-11-08T22:28:50.947Z,18.03
2022-11-08T22:31:17.582Z,17.79
2022-11-08T22:33:44.377Z,17.73
2022-11-08T22:36:11.888Z,17.52
2022-11-08T22:38:38.907Z,17.39
2022-11-08T22:41:06.359Z,17.47
2022-11-08T22:43:36.269Z,17.55
2022-11-08T22:46:03.491Z,17.59
2022-11-08T22:48:31.364Z,17.69
2022-11-08T22:50:58.361Z,17.69
2022-11-08T22:53:25.063Z,17.65
2022-11-08T22:55:51.809Z,17.61
2022-11-08T22:58:18.449Z,17.65
2022-11-08T23:00:45.099Z,17.68
2022-11-08T23:03:11.804Z,17.65
2022-11-08T23:05:38.540Z,17.67
2022-11-08T23:08:05.556Z,17.66
2022-11-08T23:10:32.228Z,17.68
2022-11-08T23:13:17.793Z,17.67
2022-11-08T23:16:03.168Z,17.68
2022-11-08T23:18:29.783Z,17.66
2022-11-08T23:21:15.254Z,17.64
2022-11-08T23:24:00.479Z,17.67
2022-11-08T23:26:46.794Z,17.66
2022-11-08T23:29:32.123Z,17.63
2022-11-08T23:36:30.760Z,17.60
2022-11-08T23:38:58.070Z,17.62
2022-11-08T23:41:43.376Z,17.66
2022-11-08T23:44:25.284Z,17.63
2022-11-08T23:46:58.358Z,17.50
2022-11-08T23:49:25.868Z,17.37
2022-11-08T23:51:52.735Z,17.52
2022-11-08T23:54:19.718Z,17.45
2022-11-08T23:56:47.005Z,17.49
2022-11-08T23:59:15.312Z,17.27
